sensor_id;sensor_type;location;lat;lon;timestamp;P1;durP1;ratioP1;P2;durP2;ratioP2
52668;SDS011;59898;52.786;6.892;2023-07-13T00:00:54;9.02;;;3.58;;
52668;SDS011;59898;52.786;6.892;2023-07-13T00:04:16;6.18;;;3.13;;
52668;SDS011;59898;52.786;6.892;2023-07-13T00:07:38;9.98;;;3.67;;
52668;SDS011;59898;52.786;6.892;2023-07-13T00:11:02;11.10;;;3.50;;
52668;SDS011;59898;52.786;6.892;2023-07-13T00:14:24;7.85;;;3.63;;
52668;SDS011;59898;52.786;6.892;2023-07-13T00:17:46;9.70;;;3.47;;
52668;SDS011;59898;52.786;6.892;2023-07-13T00:21:07;4.80;;;3.00;;
52668;SDS011;59898;52.786;6.892;2023-07-13T00:24:28;9.55;;;3.17;;
52668;SDS011;59898;52.786;6.892;2023-07-13T00:27:49;6.68;;;3.03;;
52668;SDS011;59898;52.786;6.892;2023-07-13T00:31:10;11.88;;;3.35;;
52668;SDS011;59898;52.786;6.892;2023-07-13T00:34:32;12.23;;;3.13;;
52668;SDS011;59898;52.786;6.892;2023-07-13T00:37:53;8.13;;;3.35;;
52668;SDS011;59898;52.786;6.892;2023-07-13T00:41:13;5.18;;;3.33;;
52668;SDS011;59898;52.786;6.892;2023-07-13T00:44:34;6.70;;;3.50;;
52668;SDS011;59898;52.786;6.892;2023-07-13T00:47:55;7.43;;;3.45;;
52668;SDS011;59898;52.786;6.892;2023-07-13T00:51:19;8.98;;;3.45;;
52668;SDS011;59898;52.786;6.892;2023-07-13T00:54:43;11.23;;;3.72;;
52668;SDS011;59898;52.786;6.892;2023-07-13T00:58:06;10.48;;;3.92;;
52668;SDS011;59898;52.786;6.892;2023-07-13T01:01:26;8.00;;;3.03;;
52668;SDS011;59898;52.786;6.892;2023-07-13T01:04:47;5.90;;;3.42;;
52668;SDS011;59898;52.786;6.892;2023-07-13T01:08:08;10.20;;;3.88;;
52668;SDS011;59898;52.786;6.892;2023-07-13T01:11:29;10.82;;;3.28;;
52668;SDS011;59898;52.786;6.892;2023-07-13T01:14:56;8.52;;;3.40;;
52668;SDS011;59898;52.786;6.892;2023-07-13T01:18:19;10.02;;;3.65;;
52668;SDS011;59898;52.786;6.892;2023-07-13T01:21:46;6.88;;;3.67;;
52668;SDS011;59898;52.786;6.892;2023-07-13T01:25:10;9.63;;;3.35;;
52668;SDS011;59898;52.786;6.892;2023-07-13T01:28:31;13.32;;;3.60;;
52668;SDS011;59898;52.786;6.892;2023-07-13T01:31:56;10.40;;;3.67;;
52668;SDS011;59898;52.786;6.892;2023-07-13T01:35:17;14.93;;;3.88;;
52668;SDS011;59898;52.786;6.892;2023-07-13T01:38:38;8.77;;;3.67;;
52668;SDS011;59898;52.786;6.892;2023-07-13T01:41:58;10.52;;;3.72;;
52668;SDS011;59898;52.786;6.892;2023-07-13T01:45:19;9.98;;;3.45;;
52668;SDS011;59898;52.786;6.892;2023-07-13T01:48:40;9.52;;;3.35;;
52668;SDS011;59898;52.786;6.892;2023-07-13T01:52:01;8.75;;;3.55;;
52668;SDS011;59898;52.786;6.892;2023-07-13T01:55:21;6.68;;;4.15;;
52668;SDS011;59898;52.786;6.892;2023-07-13T01:58:42;7.40;;;3.13;;
52668;SDS011;59898;52.786;6.892;2023-07-13T02:02:03;16.75;;;5.50;;
52668;SDS011;59898;52.786;6.892;2023-07-13T02:05:23;9.93;;;4.05;;
52668;SDS011;59898;52.786;6.892;2023-07-13T02:08:44;8.23;;;3.38;;
52668;SDS011;59898;52.786;6.892;2023-07-13T02:12:05;15.15;;;4.65;;
52668;SDS011;59898;52.786;6.892;2023-07-13T02:15:26;16.48;;;5.45;;
52668;SDS011;59898;52.786;6.892;2023-07-13T02:18:47;14.05;;;4.20;;
52668;SDS011;59898;52.786;6.892;2023-07-13T02:22:08;9.65;;;3.35;;
52668;SDS011;59898;52.786;6.892;2023-07-13T02:25:28;8.73;;;3.72;;
52668;SDS011;59898;52.786;6.892;2023-07-13T02:28:49;12.20;;;3.83;;
52668;SDS011;59898;52.786;6.892;2023-07-13T02:32:09;8.45;;;3.17;;
52668;SDS011;59898;52.786;6.892;2023-07-13T02:35:30;9.73;;;3.33;;
52668;SDS011;59898;52.786;6.892;2023-07-13T02:38:51;12.00;;;4.07;;
52668;SDS011;59898;52.786;6.892;2023-07-13T02:42:11;11.07;;;3.90;;
52668;SDS011;59898;52.786;6.892;2023-07-13T02:45:32;8.23;;;4.00;;
52668;SDS011;59898;52.786;6.892;2023-07-13T02:48:53;8.30;;;3.42;;
52668;SDS011;59898;52.786;6.892;2023-07-13T02:52:13;10.65;;;3.45;;
52668;SDS011;59898;52.786;6.892;2023-07-13T02:55:34;15.60;;;3.58;;
52668;SDS011;59898;52.786;6.892;2023-07-13T02:58:54;9.75;;;4.03;;
52668;SDS011;59898;52.786;6.892;2023-07-13T03:02:15;12.77;;;4.32;;
52668;SDS011;59898;52.786;6.892;2023-07-13T03:05:37;9.73;;;3.83;;
52668;SDS011;59898;52.786;6.892;2023-07-13T03:08:58;10.52;;;3.92;;
52668;SDS011;59898;52.786;6.892;2023-07-13T03:12:20;12.68;;;4.70;;
52668;SDS011;59898;52.786;6.892;2023-07-13T03:15:40;8.02;;;3.53;;
52668;SDS011;59898;52.786;6.892;2023-07-13T03:19:01;11.75;;;4.22;;
52668;SDS011;59898;52.786;6.892;2023-07-13T03:22:21;13.60;;;4.55;;
52668;SDS011;59898;52.786;6.892;2023-07-13T03:25:42;13.52;;;4.00;;
52668;SDS011;59898;52.786;6.892;2023-07-13T03:29:03;8.90;;;3.85;;
52668;SDS011;59898;52.786;6.892;2023-07-13T03:32:23;11.20;;;3.83;;
52668;SDS011;59898;52.786;6.892;2023-07-13T03:35:44;10.18;;;3.88;;
52668;SDS011;59898;52.786;6.892;2023-07-13T03:39:04;9.30;;;3.47;;
52668;SDS011;59898;52.786;6.892;2023-07-13T03:42:28;7.93;;;3.80;;
52668;SDS011;59898;52.786;6.892;2023-07-13T03:45:48;11.63;;;4.03;;
52668;SDS011;59898;52.786;6.892;2023-07-13T03:49:09;8.10;;;3.30;;
52668;SDS011;59898;52.786;6.892;2023-07-13T03:52:30;7.43;;;4.20;;
52668;SDS011;59898;52.786;6.892;2023-07-13T03:55:51;13.98;;;4.15;;
52668;SDS011;59898;52.786;6.892;2023-07-13T03:59:11;12.52;;;4.43;;
52668;SDS011;59898;52.786;6.892;2023-07-13T04:02:32;9.57;;;3.95;;
52668;SDS011;59898;52.786;6.892;2023-07-13T04:05:53;9.13;;;4.10;;
52668;SDS011;59898;52.786;6.892;2023-07-13T04:09:15;8.70;;;4.32;;
52668;SDS011;59898;52.786;6.892;2023-07-13T04:12:35;13.50;;;4.72;;
52668;SDS011;59898;52.786;6.892;2023-07-13T04:15:56;7.82;;;4.60;;
52668;SDS011;59898;52.786;6.892;2023-07-13T04:19:17;11.52;;;4.03;;
52668;SDS011;59898;52.786;6.892;2023-07-13T04:22:37;11.23;;;4.35;;
52668;SDS011;59898;52.786;6.892;2023-07-13T04:25:58;9.07;;;4.40;;
52668;SDS011;59898;52.786;6.892;2023-07-13T04:29:18;8.02;;;3.92;;
52668;SDS011;59898;52.786;6.892;2023-07-13T04:32:39;10.55;;;4.38;;
52668;SDS011;59898;52.786;6.892;2023-07-13T04:36:00;13.38;;;4.65;;
52668;SDS011;59898;52.786;6.892;2023-07-13T04:39:21;8.75;;;4.43;;
52668;SDS011;59898;52.786;6.892;2023-07-13T04:42:42;9.10;;;4.07;;
52668;SDS011;59898;52.786;6.892;2023-07-13T04:46:07;8.35;;;3.83;;
52668;SDS011;59898;52.786;6.892;2023-07-13T04:49:29;9.88;;;3.97;;
52668;SDS011;59898;52.786;6.892;2023-07-13T04:52:50;6.88;;;4.50;;
52668;SDS011;59898;52.786;6.892;2023-07-13T04:56:11;11.73;;;4.70;;
52668;SDS011;59898;52.786;6.892;2023-07-13T04:59:32;13.07;;;4.03;;
52668;SDS011;59898;52.786;6.892;2023-07-13T05:02:54;9.05;;;3.90;;
52668;SDS011;59898;52.786;6.892;2023-07-13T05:06:15;10.93;;;4.70;;
52668;SDS011;59898;52.786;6.892;2023-07-13T05:09:36;10.70;;;4.28;;
52668;SDS011;59898;52.786;6.892;2023-07-13T05:12:57;8.82;;;4.50;;
52668;SDS011;59898;52.786;6.892;2023-07-13T05:16:18;11.70;;;4.60;;
52668;SDS011;59898;52.786;6.892;2023-07-13T05:19:39;8.75;;;4.22;;
52668;SDS011;59898;52.786;6.892;2023-07-13T05:23:00;7.95;;;4.05;;
52668;SDS011;59898;52.786;6.892;2023-07-13T05:26:20;13.70;;;5.32;;
52668;SDS011;59898;52.786;6.892;2023-07-13T05:29:41;11.00;;;4.20;;
52668;SDS011;59898;52.786;6.892;2023-07-13T05:33:02;12.95;;;5.80;;
52668;SDS011;59898;52.786;6.892;2023-07-13T05:36:23;7.55;;;3.72;;
52668;SDS011;59898;52.786;6.892;2023-07-13T05:39:43;13.15;;;6.03;;
52668;SDS011;59898;52.786;6.892;2023-07-13T05:43:04;12.50;;;4.22;;
52668;SDS011;59898;52.786;6.892;2023-07-13T05:46:25;12.10;;;3.85;;
52668;SDS011;59898;52.786;6.892;2023-07-13T05:49:46;14.05;;;4.95;;
52668;SDS011;59898;52.786;6.892;2023-07-13T05:53:06;12.63;;;4.70;;
52668;SDS011;59898;52.786;6.892;2023-07-13T05:56:27;11.32;;;4.72;;
52668;SDS011;59898;52.786;6.892;2023-07-13T05:59:47;10.65;;;5.05;;
52668;SDS011;59898;52.786;6.892;2023-07-13T06:03:09;9.15;;;4.47;;
52668;SDS011;59898;52.786;6.892;2023-07-13T06:06:30;11.32;;;4.43;;
52668;SDS011;59898;52.786;6.892;2023-07-13T06:09:50;13.18;;;4.55;;
52668;SDS011;59898;52.786;6.892;2023-07-13T06:13:11;10.98;;;4.57;;
52668;SDS011;59898;52.786;6.892;2023-07-13T06:16:32;9.07;;;4.13;;
52668;SDS011;59898;52.786;6.892;2023-07-13T06:19:52;9.32;;;4.65;;
52668;SDS011;59898;52.786;6.892;2023-07-13T06:23:13;7.55;;;3.67;;
52668;SDS011;59898;52.786;6.892;2023-07-13T06:26:33;13.23;;;5.35;;
52668;SDS011;59898;52.786;6.892;2023-07-13T06:29:54;15.75;;;4.78;;
52668;SDS011;59898;52.786;6.892;2023-07-13T06:33:15;9.00;;;3.75;;
52668;SDS011;59898;52.786;6.892;2023-07-13T06:36:35;9.88;;;4.95;;
52668;SDS011;59898;52.786;6.892;2023-07-13T06:39:58;7.35;;;4.78;;
52668;SDS011;59898;52.786;6.892;2023-07-13T06:43:19;9.38;;;3.60;;
52668;SDS011;59898;52.786;6.892;2023-07-13T06:46:40;8.48;;;5.15;;
52668;SDS011;59898;52.786;6.892;2023-07-13T06:50:01;10.75;;;4.30;;
52668;SDS011;59898;52.786;6.892;2023-07-13T06:53:22;14.95;;;4.90;;
52668;SDS011;59898;52.786;6.892;2023-07-13T06:56:43;9.20;;;4.05;;
52668;SDS011;59898;52.786;6.892;2023-07-13T07:00:03;10.27;;;4.90;;
52668;SDS011;59898;52.786;6.892;2023-07-13T07:03:26;12.05;;;4.72;;
52668;SDS011;59898;52.786;6.892;2023-07-13T07:06:47;12.50;;;4.68;;
52668;SDS011;59898;52.786;6.892;2023-07-13T07:10:08;10.70;;;4.60;;
52668;SDS011;59898;52.786;6.892;2023-07-13T07:13:28;10.13;;;4.05;;
52668;SDS011;59898;52.786;6.892;2023-07-13T07:16:50;8.85;;;4.18;;
52668;SDS011;59898;52.786;6.892;2023-07-13T07:20:10;7.93;;;4.22;;
52668;SDS011;59898;52.786;6.892;2023-07-13T07:23:31;11.52;;;4.75;;
52668;SDS011;59898;52.786;6.892;2023-07-13T07:26:52;7.28;;;3.45;;
52668;SDS011;59898;52.786;6.892;2023-07-13T07:30:13;14.10;;;5.07;;
52668;SDS011;59898;52.786;6.892;2023-07-13T07:33:33;7.13;;;4.00;;
52668;SDS011;59898;52.786;6.892;2023-07-13T07:36:54;11.00;;;4.55;;
52668;SDS011;59898;52.786;6.892;2023-07-13T07:40:17;11.20;;;4.03;;
52668;SDS011;59898;52.786;6.892;2023-07-13T07:43:38;9.90;;;4.50;;
52668;SDS011;59898;52.786;6.892;2023-07-13T07:46:59;11.23;;;4.25;;
52668;SDS011;59898;52.786;6.892;2023-07-13T07:50:20;9.82;;;3.80;;
52668;SDS011;59898;52.786;6.892;2023-07-13T07:53:41;9.25;;;4.20;;
52668;SDS011;59898;52.786;6.892;2023-07-13T07:57:01;12.77;;;5.32;;
52668;SDS011;59898;52.786;6.892;2023-07-13T08:00:22;14.80;;;4.55;;
52668;SDS011;59898;52.786;6.892;2023-07-13T08:03:43;10.30;;;5.25;;
52668;SDS011;59898;52.786;6.892;2023-07-13T08:07:03;10.65;;;5.30;;
52668;SDS011;59898;52.786;6.892;2023-07-13T08:10:25;7.95;;;4.80;;
52668;SDS011;59898;52.786;6.892;2023-07-13T08:13:46;10.85;;;4.97;;
52668;SDS011;59898;52.786;6.892;2023-07-13T08:17:06;8.27;;;4.30;;
52668;SDS011;59898;52.786;6.892;2023-07-13T08:20:27;5.80;;;4.18;;
52668;SDS011;59898;52.786;6.892;2023-07-13T08:23:48;12.35;;;5.15;;
52668;SDS011;59898;52.786;6.892;2023-07-13T08:27:08;7.25;;;4.05;;
52668;SDS011;59898;52.786;6.892;2023-07-13T08:30:32;12.02;;;5.93;;
52668;SDS011;59898;52.786;6.892;2023-07-13T08:33:53;11.35;;;5.00;;
52668;SDS011;59898;52.786;6.892;2023-07-13T08:37:14;12.52;;;5.03;;
52668;SDS011;59898;52.786;6.892;2023-07-13T08:40:35;11.75;;;4.35;;
52668;SDS011;59898;52.786;6.892;2023-07-13T08:43:56;13.13;;;4.90;;
52668;SDS011;59898;52.786;6.892;2023-07-13T08:47:19;10.88;;;4.47;;
52668;SDS011;59898;52.786;6.892;2023-07-13T08:50:49;9.68;;;5.15;;
52668;SDS011;59898;52.786;6.892;2023-07-13T08:58:03;11.05;;;4.72;;
52668;SDS011;59898;52.786;6.892;2023-07-13T09:05:12;13.93;;;5.15;;
52668;SDS011;59898;52.786;6.892;2023-07-13T09:08:49;16.05;;;5.47;;
52668;SDS011;59898;52.786;6.892;2023-07-13T09:12:27;14.05;;;6.63;;
52668;SDS011;59898;52.786;6.892;2023-07-13T09:15:59;9.40;;;4.40;;
52668;SDS011;59898;52.786;6.892;2023-07-13T09:19:23;9.98;;;5.28;;
52668;SDS011;59898;52.786;6.892;2023-07-13T09:22:47;13.23;;;5.80;;
52668;SDS011;59898;52.786;6.892;2023-07-13T09:26:16;11.50;;;5.25;;
52668;SDS011;59898;52.786;6.892;2023-07-13T09:29:42;8.75;;;4.15;;
52668;SDS011;59898;52.786;6.892;2023-07-13T09:33:09;8.27;;;3.75;;
52668;SDS011;59898;52.786;6.892;2023-07-13T09:36:31;3.58;;;2.35;;
52668;SDS011;59898;52.786;6.892;2023-07-13T09:43:14;6.82;;;3.60;;
52668;SDS011;59898;52.786;6.892;2023-07-13T09:46:37;3.47;;;2.47;;
52668;SDS011;59898;52.786;6.892;2023-07-13T09:50:04;5.30;;;3.22;;
52668;SDS011;59898;52.786;6.892;2023-07-13T09:53:30;5.15;;;2.70;;
52668;SDS011;59898;52.786;6.892;2023-07-13T09:57:33;3.58;;;2.25;;
52668;SDS011;59898;52.786;6.892;2023-07-13T10:00:37;3.35;;;2.10;;
52668;SDS011;59898;52.786;6.892;2023-07-13T10:04:00;3.42;;;2.38;;
52668;SDS011;59898;52.786;6.892;2023-07-13T10:07:22;4.55;;;2.20;;
52668;SDS011;59898;52.786;6.892;2023-07-13T10:10:43;3.65;;;2.10;;
52668;SDS011;59898;52.786;6.892;2023-07-13T10:14:10;4.13;;;2.38;;
52668;SDS011;59898;52.786;6.892;2023-07-13T10:17:35;6.35;;;2.10;;
52668;SDS011;59898;52.786;6.892;2023-07-13T10:21:08;2.97;;;2.00;;
52668;SDS011;59898;52.786;6.892;2023-07-13T10:24:35;3.92;;;1.90;;
52668;SDS011;59898;52.786;6.892;2023-07-13T10:27:58;3.80;;;1.90;;
52668;SDS011;59898;52.786;6.892;2023-07-13T10:31:34;2.10;;;1.70;;
52668;SDS011;59898;52.786;6.892;2023-07-13T10:34:57;6.20;;;3.92;;
52668;SDS011;59898;52.786;6.892;2023-07-13T10:38:22;5.03;;;2.20;;
52668;SDS011;59898;52.786;6.892;2023-07-13T10:41:44;3.38;;;2.33;;
52668;SDS011;59898;52.786;6.892;2023-07-13T10:45:16;3.13;;;2.42;;
52668;SDS011;59898;52.786;6.892;2023-07-13T10:48:40;4.10;;;2.70;;
52668;SDS011;59898;52.786;6.892;2023-07-13T10:52:03;4.50;;;2.83;;
52668;SDS011;59898;52.786;6.892;2023-07-13T10:55:35;5.65;;;3.58;;
52668;SDS011;59898;52.786;6.892;2023-07-13T10:59:15;6.65;;;4.13;;
52668;SDS011;59898;52.786;6.892;2023-07-13T11:02:37;7.28;;;4.70;;
52668;SDS011;59898;52.786;6.892;2023-07-13T11:06:11;4.97;;;4.47;;
52668;SDS011;59898;52.786;6.892;2023-07-13T11:09:36;8.43;;;3.92;;
52668;SDS011;59898;52.786;6.892;2023-07-13T11:13:01;8.88;;;4.25;;
52668;SDS011;59898;52.786;6.892;2023-07-13T11:19:45;10.93;;;5.50;;
52668;SDS011;59898;52.786;6.892;2023-07-13T11:30:38;7.30;;;4.65;;
52668;SDS011;59898;52.786;6.892;2023-07-13T11:33:51;6.40;;;4.75;;
52668;SDS011;59898;52.786;6.892;2023-07-13T11:37:15;4.40;;;3.00;;
52668;SDS011;59898;52.786;6.892;2023-07-13T11:40:38;5.70;;;3.50;;
52668;SDS011;59898;52.786;6.892;2023-07-13T11:44:33;3.70;;;2.50;;
52668;SDS011;59898;52.786;6.892;2023-07-13T11:47:47;3.67;;;2.72;;
52668;SDS011;59898;52.786;6.892;2023-07-13T11:51:09;3.70;;;2.20;;
52668;SDS011;59898;52.786;6.892;2023-07-13T11:54:57;4.63;;;2.60;;
52668;SDS011;59898;52.786;6.892;2023-07-13T11:58:23;2.90;;;2.42;;
52668;SDS011;59898;52.786;6.892;2023-07-13T12:01:46;3.92;;;3.00;;
52668;SDS011;59898;52.786;6.892;2023-07-13T12:05:14;3.80;;;3.13;;
52668;SDS011;59898;52.786;6.892;2023-07-13T12:08:38;5.72;;;3.25;;
52668;SDS011;59898;52.786;6.892;2023-07-13T12:12:02;4.28;;;3.17;;
52668;SDS011;59898;52.786;6.892;2023-07-13T12:15:23;3.35;;;2.35;;
52668;SDS011;59898;52.786;6.892;2023-07-13T12:18:51;4.50;;;3.00;;
52668;SDS011;59898;52.786;6.892;2023-07-13T12:22:13;5.70;;;3.45;;
52668;SDS011;59898;52.786;6.892;2023-07-13T12:25:35;5.75;;;3.15;;
52668;SDS011;59898;52.786;6.892;2023-07-13T12:28:57;7.70;;;4.25;;
52668;SDS011;59898;52.786;6.892;2023-07-13T12:32:20;4.22;;;3.15;;
52668;SDS011;59898;52.786;6.892;2023-07-13T12:35:49;7.57;;;3.63;;
52668;SDS011;59898;52.786;6.892;2023-07-13T12:39:13;4.95;;;3.50;;
52668;SDS011;59898;52.786;6.892;2023-07-13T12:42:38;8.23;;;4.28;;
52668;SDS011;59898;52.786;6.892;2023-07-13T12:46:03;7.00;;;3.83;;
52668;SDS011;59898;52.786;6.892;2023-07-13T12:49:27;6.05;;;2.90;;
52668;SDS011;59898;52.786;6.892;2023-07-13T12:52:53;6.78;;;3.58;;
52668;SDS011;59898;52.786;6.892;2023-07-13T12:56:21;8.73;;;5.95;;
52668;SDS011;59898;52.786;6.892;2023-07-13T12:59:44;8.85;;;6.45;;
52668;SDS011;59898;52.786;6.892;2023-07-13T13:03:05;9.10;;;4.10;;
52668;SDS011;59898;52.786;6.892;2023-07-13T13:06:34;8.52;;;3.47;;
52668;SDS011;59898;52.786;6.892;2023-07-13T13:09:56;5.15;;;3.45;;
52668;SDS011;59898;52.786;6.892;2023-07-13T13:13:16;5.97;;;2.80;;
52668;SDS011;59898;52.786;6.892;2023-07-13T13:16:44;7.45;;;3.30;;
52668;SDS011;59898;52.786;6.892;2023-07-13T13:20:16;7.60;;;3.20;;
52668;SDS011;59898;52.786;6.892;2023-07-13T13:23:39;7.13;;;3.90;;
52668;SDS011;59898;52.786;6.892;2023-07-13T13:26:59;4.75;;;2.90;;
52668;SDS011;59898;52.786;6.892;2023-07-13T13:30:20;7.05;;;2.50;;
52668;SDS011;59898;52.786;6.892;2023-07-13T13:33:42;4.43;;;2.67;;
52668;SDS011;59898;52.786;6.892;2023-07-13T13:37:26;5.45;;;2.70;;
52668;SDS011;59898;52.786;6.892;2023-07-13T13:40:46;4.20;;;2.40;;
52668;SDS011;59898;52.786;6.892;2023-07-13T13:44:08;4.55;;;2.13;;
52668;SDS011;59898;52.786;6.892;2023-07-13T13:47:30;8.95;;;3.88;;
52668;SDS011;59898;52.786;6.892;2023-07-13T13:50:53;3.67;;;2.40;;
52668;SDS011;59898;52.786;6.892;2023-07-13T13:54:14;3.85;;;2.20;;
52668;SDS011;59898;52.786;6.892;2023-07-13T13:57:36;4.65;;;2.20;;
52668;SDS011;59898;52.786;6.892;2023-07-13T14:00:56;4.22;;;2.50;;
52668;SDS011;59898;52.786;6.892;2023-07-13T14:04:18;5.22;;;2.45;;
52668;SDS011;59898;52.786;6.892;2023-07-13T14:07:41;3.92;;;2.58;;
52668;SDS011;59898;52.786;6.892;2023-07-13T14:11:01;3.20;;;2.17;;
52668;SDS011;59898;52.786;6.892;2023-07-13T14:14:22;3.83;;;2.00;;
52668;SDS011;59898;52.786;6.892;2023-07-13T14:17:44;7.97;;;4.77;;
52668;SDS011;59898;52.786;6.892;2023-07-13T14:21:10;3.60;;;2.30;;
52668;SDS011;59898;52.786;6.892;2023-07-13T14:24:33;6.45;;;2.45;;
52668;SDS011;59898;52.786;6.892;2023-07-13T14:27:56;4.40;;;2.30;;
52668;SDS011;59898;52.786;6.892;2023-07-13T14:31:27;4.32;;;2.20;;
52668;SDS011;59898;52.786;6.892;2023-07-13T14:34:51;6.45;;;2.30;;
52668;SDS011;59898;52.786;6.892;2023-07-13T14:38:13;4.45;;;2.88;;
52668;SDS011;59898;52.786;6.892;2023-07-13T14:41:39;4.15;;;2.30;;
52668;SDS011;59898;52.786;6.892;2023-07-13T14:45:00;3.40;;;2.38;;
52668;SDS011;59898;52.786;6.892;2023-07-13T14:48:22;4.90;;;2.78;;
52668;SDS011;59898;52.786;6.892;2023-07-13T14:51:43;3.97;;;2.25;;
52668;SDS011;59898;52.786;6.892;2023-07-13T14:55:08;4.80;;;2.70;;
52668;SDS011;59898;52.786;6.892;2023-07-13T14:58:32;4.63;;;2.40;;
52668;SDS011;59898;52.786;6.892;2023-07-13T15:01:53;4.80;;;2.13;;
52668;SDS011;59898;52.786;6.892;2023-07-13T15:05:16;3.38;;;1.92;;
52668;SDS011;59898;52.786;6.892;2023-07-13T15:08:39;3.88;;;2.20;;
52668;SDS011;59898;52.786;6.892;2023-07-13T15:12:00;7.00;;;2.55;;
52668;SDS011;59898;52.786;6.892;2023-07-13T15:15:21;5.25;;;2.08;;
52668;SDS011;59898;52.786;6.892;2023-07-13T15:18:42;3.67;;;2.05;;
52668;SDS011;59898;52.786;6.892;2023-07-13T15:22:03;6.15;;;2.30;;
52668;SDS011;59898;52.786;6.892;2023-07-13T15:25:25;3.63;;;2.20;;
52668;SDS011;59898;52.786;6.892;2023-07-13T15:28:48;3.38;;;1.90;;
52668;SDS011;59898;52.786;6.892;2023-07-13T15:32:12;4.03;;;2.40;;
52668;SDS011;59898;52.786;6.892;2023-07-13T15:35:34;5.80;;;4.43;;
52668;SDS011;59898;52.786;6.892;2023-07-13T15:38:55;4.82;;;2.85;;
52668;SDS011;59898;52.786;6.892;2023-07-13T15:42:16;5.13;;;2.30;;
52668;SDS011;59898;52.786;6.892;2023-07-13T15:45:39;5.47;;;2.80;;
52668;SDS011;59898;52.786;6.892;2023-07-13T15:49:00;6.93;;;3.53;;
52668;SDS011;59898;52.786;6.892;2023-07-13T15:52:23;4.35;;;2.20;;
52668;SDS011;59898;52.786;6.892;2023-07-13T15:55:44;6.32;;;2.70;;
52668;SDS011;59898;52.786;6.892;2023-07-13T15:59:05;4.95;;;2.28;;
52668;SDS011;59898;52.786;6.892;2023-07-13T16:02:29;4.15;;;2.38;;
52668;SDS011;59898;52.786;6.892;2023-07-13T16:05:49;5.13;;;3.22;;
52668;SDS011;59898;52.786;6.892;2023-07-13T16:09:16;3.85;;;2.15;;
52668;SDS011;59898;52.786;6.892;2023-07-13T16:12:42;3.63;;;2.42;;
52668;SDS011;59898;52.786;6.892;2023-07-13T16:16:06;5.25;;;2.60;;
52668;SDS011;59898;52.786;6.892;2023-07-13T16:19:29;3.00;;;2.20;;
52668;SDS011;59898;52.786;6.892;2023-07-13T16:22:51;4.33;;;2.03;;
52668;SDS011;59898;52.786;6.892;2023-07-13T16:26:26;4.55;;;2.25;;
52668;SDS011;59898;52.786;6.892;2023-07-13T16:29:47;5.40;;;2.53;;
52668;SDS011;59898;52.786;6.892;2023-07-13T16:33:08;2.92;;;2.50;;
52668;SDS011;59898;52.786;6.892;2023-07-13T16:36:29;4.80;;;2.78;;
52668;SDS011;59898;52.786;6.892;2023-07-13T16:39:51;7.68;;;4.30;;
52668;SDS011;59898;52.786;6.892;2023-07-13T16:43:14;7.53;;;3.20;;
52668;SDS011;59898;52.786;6.892;2023-07-13T16:46:37;5.82;;;3.90;;
52668;SDS011;59898;52.786;6.892;2023-07-13T16:49:59;6.63;;;2.80;;
52668;SDS011;59898;52.786;6.892;2023-07-13T16:53:25;4.80;;;2.83;;
52668;SDS011;59898;52.786;6.892;2023-07-13T16:56:48;8.85;;;4.18;;
52668;SDS011;59898;52.786;6.892;2023-07-13T17:00:15;4.75;;;3.00;;
52668;SDS011;59898;52.786;6.892;2023-07-13T17:03:38;4.85;;;2.60;;
52668;SDS011;59898;52.786;6.892;2023-07-13T17:06:59;5.40;;;2.60;;
52668;SDS011;59898;52.786;6.892;2023-07-13T17:10:21;5.28;;;2.78;;
52668;SDS011;59898;52.786;6.892;2023-07-13T17:13:43;3.50;;;2.78;;
52668;SDS011;59898;52.786;6.892;2023-07-13T17:17:05;4.13;;;2.55;;
52668;SDS011;59898;52.786;6.892;2023-07-13T17:20:36;5.30;;;2.88;;
52668;SDS011;59898;52.786;6.892;2023-07-13T17:24:04;10.45;;;3.42;;
52668;SDS011;59898;52.786;6.892;2023-07-13T17:27:33;5.78;;;2.58;;
52668;SDS011;59898;52.786;6.892;2023-07-13T17:30:54;4.70;;;2.70;;
52668;SDS011;59898;52.786;6.892;2023-07-13T17:34:17;6.65;;;2.92;;
52668;SDS011;59898;52.786;6.892;2023-07-13T17:37:39;4.18;;;2.75;;
52668;SDS011;59898;52.786;6.892;2023-07-13T17:41:00;8.23;;;3.25;;
52668;SDS011;59898;52.786;6.892;2023-07-13T17:44:21;6.43;;;2.40;;
52668;SDS011;59898;52.786;6.892;2023-07-13T17:47:42;4.18;;;2.60;;
52668;SDS011;59898;52.786;6.892;2023-07-13T17:51:03;6.63;;;3.60;;
52668;SDS011;59898;52.786;6.892;2023-07-13T17:54:25;10.77;;;3.40;;
52668;SDS011;59898;52.786;6.892;2023-07-13T17:57:48;4.45;;;3.03;;
52668;SDS011;59898;52.786;6.892;2023-07-13T18:01:10;6.82;;;4.05;;
52668;SDS011;59898;52.786;6.892;2023-07-13T18:04:32;6.97;;;3.75;;
52668;SDS011;59898;52.786;6.892;2023-07-13T18:07:57;6.45;;;2.90;;
52668;SDS011;59898;52.786;6.892;2023-07-13T18:11:18;6.68;;;3.20;;
52668;SDS011;59898;52.786;6.892;2023-07-13T18:18:01;5.60;;;3.25;;
52668;SDS011;59898;52.786;6.892;2023-07-13T18:24:46;6.27;;;3.47;;
52668;SDS011;59898;52.786;6.892;2023-07-13T18:28:06;5.35;;;3.28;;
52668;SDS011;59898;52.786;6.892;2023-07-13T18:31:31;5.25;;;3.15;;
52668;SDS011;59898;52.786;6.892;2023-07-13T18:34:54;4.78;;;2.92;;
52668;SDS011;59898;52.786;6.892;2023-07-13T18:38:16;9.70;;;3.35;;
52668;SDS011;59898;52.786;6.892;2023-07-13T18:41:43;8.10;;;3.47;;
52668;SDS011;59898;52.786;6.892;2023-07-13T18:45:05;5.60;;;3.30;;
52668;SDS011;59898;52.786;6.892;2023-07-13T18:51:51;4.53;;;2.90;;
52668;SDS011;59898;52.786;6.892;2023-07-13T18:55:16;6.15;;;3.35;;
52668;SDS011;59898;52.786;6.892;2023-07-13T18:58:39;8.30;;;3.00;;
52668;SDS011;59898;52.786;6.892;2023-07-13T19:02:00;14.38;;;9.18;;
52668;SDS011;59898;52.786;6.892;2023-07-13T19:05:22;4.43;;;3.15;;
52668;SDS011;59898;52.786;6.892;2023-07-13T19:08:45;7.40;;;3.75;;
52668;SDS011;59898;52.786;6.892;2023-07-13T19:12:14;4.28;;;2.90;;
52668;SDS011;59898;52.786;6.892;2023-07-13T19:15:40;4.28;;;3.38;;
52668;SDS011;59898;52.786;6.892;2023-07-13T19:19:04;5.95;;;2.88;;
52668;SDS011;59898;52.786;6.892;2023-07-13T19:22:32;6.40;;;3.30;;
52668;SDS011;59898;52.786;6.892;2023-07-13T19:25:54;3.92;;;3.33;;
52668;SDS011;59898;52.786;6.892;2023-07-13T19:29:22;6.72;;;3.38;;
52668;SDS011;59898;52.786;6.892;2023-07-13T19:32:44;6.20;;;3.22;;
52668;SDS011;59898;52.786;6.892;2023-07-13T19:36:09;4.55;;;3.15;;
52668;SDS011;59898;52.786;6.892;2023-07-13T19:39:35;7.10;;;3.85;;
52668;SDS011;59898;52.786;6.892;2023-07-13T19:43:00;5.00;;;3.20;;
52668;SDS011;59898;52.786;6.892;2023-07-13T19:46:26;6.40;;;3.55;;
52668;SDS011;59898;52.786;6.892;2023-07-13T19:49:54;3.97;;;3.30;;
52668;SDS011;59898;52.786;6.892;2023-07-13T19:53:16;5.88;;;3.55;;
52668;SDS011;59898;52.786;6.892;2023-07-13T19:56:39;7.68;;;4.35;;
52668;SDS011;59898;52.786;6.892;2023-07-13T20:00:00;5.05;;;3.90;;
52668;SDS011;59898;52.786;6.892;2023-07-13T20:03:23;4.00;;;3.30;;
52668;SDS011;59898;52.786;6.892;2023-07-13T20:06:43;7.20;;;4.45;;
52668;SDS011;59898;52.786;6.892;2023-07-13T20:10:21;5.18;;;3.33;;
52668;SDS011;59898;52.786;6.892;2023-07-13T20:13:43;6.55;;;3.67;;
52668;SDS011;59898;52.786;6.892;2023-07-13T20:17:09;8.05;;;3.65;;
52668;SDS011;59898;52.786;6.892;2023-07-13T20:20:41;8.75;;;7.20;;
52668;SDS011;59898;52.786;6.892;2023-07-13T20:27:36;6.38;;;3.83;;
52668;SDS011;59898;52.786;6.892;2023-07-13T20:30:57;5.90;;;4.53;;
52668;SDS011;59898;52.786;6.892;2023-07-13T20:34:20;7.82;;;4.22;;
52668;SDS011;59898;52.786;6.892;2023-07-13T20:37:42;10.25;;;5.00;;
52668;SDS011;59898;52.786;6.892;2023-07-13T20:44:29;6.40;;;4.43;;
52668;SDS011;59898;52.786;6.892;2023-07-13T20:47:50;6.47;;;4.25;;
52668;SDS011;59898;52.786;6.892;2023-07-13T20:51:15;6.78;;;4.47;;
52668;SDS011;59898;52.786;6.892;2023-07-13T20:54:36;7.38;;;5.28;;